createdAt,value
2023-03-19T00:00:52.312Z,2.70
2023-03-19T00:03:21.452Z,2.70
2023-03-19T00:05:53.804Z,2.33
2023-03-19T00:08:22.576Z,2.70
2023-03-19T00:10:50.428Z,2.60
2023-03-19T00:13:18.466Z,2.63
2023-03-19T00:15:46.663Z,2.80
2023-03-19T00:18:14.601Z,2.70
2023-03-19T00:20:44.611Z,2.83
2023-03-19T00:23:12.587Z,2.63
2023-03-19T00:25:40.388Z,2.73
2023-03-19T00:28:08.137Z,2.50
2023-03-19T00:30:36.387Z,2.47
2023-03-19T00:33:04.316Z,3.27
2023-03-19T00:35:32.732Z,3.20
2023-03-19T00:38:02.071Z,2.93
2023-03-19T00:40:29.849Z,3.03
2023-03-19T00:42:57.630Z,3.43
2023-03-19T00:45:25.415Z,3.27
2023-03-19T00:47:53.198Z,3.00
2023-03-19T00:50:20.988Z,2.70
2023-03-19T00:52:48.804Z,2.50
2023-03-19T00:55:18.059Z,2.50
2023-03-19T00:57:46.010Z,2.70
2023-03-19T01:02:41.655Z,2.40
2023-03-19T01:05:10.153Z,2.27
2023-03-19T01:07:37.995Z,2.30
2023-03-19T01:10:06.637Z,2.40
2023-03-19T01:12:36.866Z,2.20
2023-03-19T01:15:07.015Z,2.30
2023-03-19T01:17:34.823Z,2.40
2023-03-19T01:20:03.304Z,2.67
2023-03-19T01:22:31.125Z,3.60
2023-03-19T01:24:58.887Z,3.23
2023-03-19T01:27:26.740Z,3.30
2023-03-19T01:29:56.234Z,3.23
2023-03-19T01:32:24.104Z,3.20
2023-03-19T01:34:51.861Z,3.60
2023-03-19T01:37:19.648Z,3.40
2023-03-19T01:39:47.649Z,2.77
2023-03-19T01:42:16.787Z,2.87
2023-03-19T01:44:45.184Z,2.90
2023-03-19T01:47:20.575Z,3.87
2023-03-19T01:49:53.770Z,2.90
2023-03-19T01:52:22.620Z,2.77
2023-03-19T01:54:51.754Z,2.30
2023-03-19T01:57:21.211Z,1.90
2023-03-19T01:59:52.498Z,1.87
2023-03-19T02:02:26.585Z,1.80
2023-03-19T02:04:58.771Z,1.87
2023-03-19T02:07:27.445Z,2.37
2023-03-19T02:09:55.895Z,2.80
2023-03-19T02:12:23.694Z,2.20
2023-03-19T02:14:51.546Z,2.60
2023-03-19T02:17:21.431Z,2.30
2023-03-19T02:19:56.853Z,2.30
2023-03-19T02:22:28.732Z,2.20
2023-03-19T02:25:00.878Z,1.97
2023-03-19T02:27:30.119Z,2.30
2023-03-19T02:29:57.937Z,2.40
2023-03-19T02:32:27.006Z,2.60
2023-03-19T02:34:54.801Z,2.20
2023-03-19T02:37:27.417Z,2.17
2023-03-19T02:39:59.147Z,2.40
2023-03-19T02:42:30.513Z,2.20
2023-03-19T02:44:58.770Z,2.07
2023-03-19T02:47:27.670Z,1.87
2023-03-19T02:49:55.519Z,2.57
2023-03-19T02:52:23.295Z,1.73
2023-03-19T02:54:51.074Z,2.20
2023-03-19T02:57:18.945Z,2.00
2023-03-19T02:59:48.072Z,2.30
2023-03-19T03:02:16.227Z,2.20
2023-03-19T03:04:44.213Z,2.20
2023-03-19T03:07:12.488Z,2.27
2023-03-19T03:09:40.579Z,1.90
2023-03-19T03:12:09.240Z,2.10
2023-03-19T03:14:38.011Z,2.40
2023-03-19T03:17:08.349Z,2.20
2023-03-19T03:19:36.404Z,2.10
2023-03-19T03:22:05.571Z,2.00
2023-03-19T03:24:33.386Z,2.60
2023-03-19T03:27:01.318Z,2.27
2023-03-19T03:29:29.298Z,1.80
2023-03-19T03:31:57.329Z,1.80
2023-03-19T03:34:26.747Z,2.10
2023-03-19T03:36:54.547Z,1.90
2023-03-19T03:39:24.968Z,2.00
2023-03-19T03:41:52.882Z,1.80
2023-03-19T03:44:20.689Z,1.70
2023-03-19T03:46:49.284Z,2.07
2023-03-19T03:49:17.118Z,2.40
2023-03-19T03:51:46.723Z,2.20
2023-03-19T03:54:14.459Z,2.10
2023-03-19T03:56:42.257Z,1.90
2023-03-19T03:59:10.467Z,2.30
2023-03-19T04:01:38.300Z,1.90
2023-03-19T04:04:06.087Z,1.90
2023-03-19T04:06:34.783Z,1.90
2023-03-19T04:09:04.647Z,1.93
2023-03-19T04:11:32.447Z,2.00
2023-03-19T04:14:01.353Z,2.50
2023-03-19T04:16:29.273Z,2.07
2023-03-19T04:18:57.035Z,2.10
2023-03-19T04:21:24.812Z,1.80
2023-03-19T04:23:52.744Z,2.20
2023-03-19T04:26:21.852Z,2.00
2023-03-19T04:28:49.617Z,1.73
2023-03-19T04:31:17.417Z,2.10
2023-03-19T04:33:45.598Z,2.20
2023-03-19T04:36:13.438Z,2.00
2023-03-19T04:38:41.524Z,2.03
2023-03-19T04:41:09.286Z,1.90
2023-03-19T04:43:38.443Z,2.17
2023-03-19T04:46:06.873Z,2.30
2023-03-19T04:48:35.796Z,1.87
2023-03-19T04:51:04.014Z,2.20
2023-03-19T04:53:32.920Z,2.00
2023-03-19T04:56:00.740Z,2.10
2023-03-19T04:58:28.547Z,2.30
2023-03-19T05:00:57.651Z,1.80
2023-03-19T05:03:26.247Z,1.80
2023-03-19T05:05:54.567Z,1.87
2023-03-19T05:08:22.492Z,1.63
2023-03-19T05:10:50.241Z,1.90
2023-03-19T05:13:20.434Z,1.80
2023-03-19T05:15:49.380Z,1.90
2023-03-19T05:18:18.496Z,2.43
2023-03-19T05:20:46.470Z,1.83
2023-03-19T05:23:14.326Z,2.17
2023-03-19T05:25:42.122Z,2.30
2023-03-19T05:28:09.982Z,2.23
2023-03-19T05:30:37.978Z,2.17
2023-03-19T05:33:05.792Z,2.00
2023-03-19T05:35:35.515Z,2.07
2023-03-19T05:38:03.378Z,2.50
2023-03-19T05:40:31.959Z,2.40
2023-03-19T05:42:59.840Z,2.63
2023-03-19T05:45:27.631Z,1.80
2023-03-19T05:47:55.417Z,2.47
2023-03-19T05:50:23.319Z,2.30
2023-03-19T05:52:52.456Z,2.10
2023-03-19T05:55:20.229Z,2.10
2023-03-19T05:57:48.362Z,2.17
2023-03-19T06:00:17.272Z,2.37
2023-03-19T06:02:45.435Z,2.03
2023-03-19T06:05:13.259Z,2.77
2023-03-19T06:07:41.224Z,2.93
2023-03-19T06:10:11.603Z,2.80
2023-03-19T06:12:39.467Z,2.40
2023-03-19T06:15:09.083Z,2.90
2023-03-19T06:17:37.315Z,2.63
2023-03-19T06:20:05.661Z,2.40
2023-03-19T06:22:33.521Z,2.63
2023-03-19T06:25:01.304Z,3.03
2023-03-19T06:27:30.456Z,2.70
2023-03-19T06:29:58.240Z,2.23
2023-03-19T06:32:26.006Z,2.63
2023-03-19T06:34:55.115Z,2.60
2023-03-19T06:37:23.082Z,2.47
2023-03-19T06:39:51.099Z,2.70
2023-03-19T06:42:19.000Z,2.00
2023-03-19T06:44:48.225Z,2.70
2023-03-19T06:47:16.135Z,2.67
2023-03-19T06:49:43.964Z,2.40
2023-03-19T06:52:11.998Z,2.80
2023-03-19T06:54:39.792Z,3.10
2023-03-19T06:57:07.654Z,2.80
2023-03-19T06:59:35.947Z,3.37
2023-03-19T07:02:05.465Z,2.73
2023-03-19T07:04:33.487Z,2.90
2023-03-19T07:07:02.560Z,2.87
2023-03-19T07:09:31.585Z,2.90
2023-03-19T07:11:59.376Z,3.20
2023-03-19T07:14:27.384Z,3.10
2023-03-19T07:16:55.332Z,2.60
2023-03-19T07:19:24.492Z,3.10
2023-03-19T07:21:52.402Z,2.90
2023-03-19T07:24:20.284Z,2.97
2023-03-19T07:26:48.096Z,2.70
2023-03-19T07:29:17.574Z,2.80
2023-03-19T07:31:45.413Z,2.83
2023-03-19T07:34:13.325Z,2.73
2023-03-19T07:36:42.479Z,2.90
2023-03-19T07:39:10.284Z,2.97
2023-03-19T07:41:38.165Z,3.00
2023-03-19T07:44:06.299Z,2.50
2023-03-19T07:46:34.152Z,2.57
2023-03-19T07:49:01.961Z,2.70
2023-03-19T07:51:29.760Z,2.90
2023-03-19T07:53:58.872Z,2.77
2023-03-19T07:56:26.771Z,3.00
2023-03-19T07:58:54.669Z,2.60
2023-03-19T08:01:22.489Z,2.57
2023-03-19T08:03:50.455Z,3.07
2023-03-19T08:06:18.279Z,2.67
2023-03-19T08:08:46.116Z,2.47
2023-03-19T08:11:15.459Z,2.93
2023-03-19T08:13:43.391Z,3.33
2023-03-19T08:16:11.645Z,3.10
2023-03-19T08:18:39.433Z,2.60
2023-03-19T08:21:07.676Z,3.00
2023-03-19T08:23:36.064Z,2.77
2023-03-19T08:26:03.891Z,2.73
2023-03-19T08:28:33.078Z,2.73
2023-03-19T08:31:08.791Z,2.37
2023-03-19T08:33:36.907Z,2.67
2023-03-19T08:36:09.254Z,2.90
2023-03-19T08:38:37.409Z,2.70
2023-03-19T08:41:06.217Z,2.70
2023-03-19T08:43:37.641Z,2.60
2023-03-19T08:46:06.156Z,3.50
2023-03-19T08:48:34.140Z,2.83
2023-03-19T08:51:03.793Z,2.50
2023-03-19T08:53:32.981Z,2.50
2023-03-19T08:56:06.199Z,2.67
2023-03-19T08:58:35.767Z,2.67
2023-03-19T09:01:04.236Z,2.47
2023-03-19T09:03:34.451Z,3.03
2023-03-19T09:06:02.997Z,2.63
2023-03-19T09:08:31.522Z,3.17
2023-03-19T09:11:00.064Z,3.00
2023-03-19T09:13:28.261Z,2.97
2023-03-19T09:15:57.488Z,2.67
2023-03-19T09:18:25.875Z,2.57
2023-03-19T09:20:55.122Z,2.87
2023-03-19T09:23:23.240Z,2.40
2023-03-19T09:25:51.271Z,2.63
2023-03-19T09:28:19.146Z,2.77
2023-03-19T09:30:48.492Z,3.00
2023-03-19T09:33:18.985Z,3.13
2023-03-19T09:35:52.393Z,3.23
2023-03-19T09:38:20.531Z,3.23
2023-03-19T09:40:50.343Z,2.43
2023-03-19T09:43:41.850Z,2.83
2023-03-19T09:46:15.514Z,2.90
2023-03-19T09:48:50.526Z,2.57
2023-03-19T09:51:24.792Z,2.70
2023-03-19T09:53:58.053Z,2.17
2023-03-19T09:56:27.091Z,2.57
2023-03-19T09:58:55.168Z,2.43
2023-03-19T10:01:27.322Z,2.03
2023-03-19T10:04:32.894Z,2.30
2023-03-19T10:07:09.845Z,2.17
2023-03-19T10:09:47.923Z,1.80
2023-03-19T10:12:30.769Z,2.70
2023-03-19T10:15:05.677Z,2.60
2023-03-19T10:17:36.032Z,2.60
2023-03-19T10:20:08.688Z,2.50
2023-03-19T10:22:40.473Z,2.40
2023-03-19T10:25:13.757Z,2.50
2023-03-19T10:27:42.670Z,2.40
2023-03-19T10:30:16.615Z,2.40
2023-03-19T10:32:46.985Z,2.73
2023-03-19T10:35:22.150Z,2.70
2023-03-19T10:37:51.056Z,3.10
2023-03-19T10:40:23.305Z,2.87
2023-03-19T10:43:05.295Z,2.33
2023-03-19T10:45:37.923Z,2.37
2023-03-19T10:48:07.130Z,2.30
2023-03-19T10:50:47.773Z,2.50
2023-03-19T10:53:31.602Z,2.40
2023-03-19T10:56:03.323Z,2.80
2023-03-19T10:58:33.182Z,2.40
2023-03-19T11:01:06.263Z,2.57
2023-03-19T11:03:36.698Z,2.53
2023-03-19T11:06:08.880Z,3.10
2023-03-19T11:08:37.887Z,2.63
2023-03-19T11:11:05.931Z,2.50
2023-03-19T11:13:35.955Z,2.87
2023-03-19T11:16:05.708Z,2.70
2023-03-19T11:18:39.803Z,2.43
2023-03-19T11:21:23.030Z,2.03
2023-03-19T11:23:54.856Z,2.10
2023-03-19T11:26:24.464Z,2.33
2023-03-19T11:28:52.473Z,2.37
2023-03-19T11:31:27.595Z,2.30
2023-03-19T11:34:09.480Z,2.00
2023-03-19T11:36:47.545Z,4.73
2023-03-19T11:39:25.757Z,3.67
2023-03-19T11:42:24.055Z,4.10
2023-03-19T11:45:02.017Z,2.50
2023-03-19T11:47:36.794Z,2.37
2023-03-19T11:50:18.438Z,3.20
2023-03-19T11:53:02.035Z,2.77
2023-03-19T11:55:36.350Z,3.50
2023-03-19T11:58:24.029Z,3.20
2023-03-19T12:00:53.885Z,2.40
2023-03-19T12:03:44.753Z,2.87
2023-03-19T12:06:24.920Z,2.57
2023-03-19T12:09:02.264Z,3.20
2023-03-19T12:11:37.812Z,3.67
2023-03-19T12:14:21.943Z,2.83
2023-03-19T12:17:13.085Z,3.60
2023-03-19T12:20:00.240Z,3.23
2023-03-19T12:22:43.699Z,3.27
2023-03-19T12:25:27.278Z,3.00
2023-03-19T12:28:00.376Z,2.83
2023-03-19T12:30:35.698Z,2.60
2023-03-19T12:33:15.543Z,2.63
2023-03-19T12:35:49.515Z,3.63
2023-03-19T12:38:24.041Z,3.13
2023-03-19T12:40:57.099Z,3.00
2023-03-19T12:43:29.454Z,4.10
2023-03-19T12:46:00.988Z,3.33
2023-03-19T12:48:32.295Z,2.50
2023-03-19T12:51:06.182Z,3.20
2023-03-19T12:53:43.912Z,3.87
2023-03-19T12:56:20.011Z,3.60
2023-03-19T12:58:58.650Z,2.77
2023-03-19T13:01:31.187Z,3.77
2023-03-19T13:04:04.407Z,3.87
2023-03-19T13:06:36.970Z,3.17
2023-03-19T13:09:08.415Z,3.23
2023-03-19T13:11:44.963Z,2.73
2023-03-19T13:14:21.111Z,2.93
2023-03-19T13:16:57.539Z,3.17
2023-03-19T13:19:30.816Z,2.80
2023-03-19T13:22:03.208Z,3.17
2023-03-19T13:24:34.944Z,2.70
2023-03-19T13:27:05.321Z,3.40
2023-03-19T13:29:35.677Z,3.27
2023-03-19T13:32:07.511Z,3.10
2023-03-19T13:34:36.572Z,3.70
2023-03-19T13:37:14.085Z,3.03
2023-03-19T13:39:44.044Z,2.33
2023-03-19T13:42:36.059Z,2.60
2023-03-19T13:45:06.117Z,2.70
2023-03-19T13:47:44.300Z,2.70
2023-03-19T13:50:30.982Z,3.27
2023-03-19T13:53:37.640Z,2.57
2023-03-19T13:56:15.894Z,2.57
2023-03-19T13:59:26.949Z,3.30
2023-03-19T14:01:55.353Z,3.30
2023-03-19T14:04:27.783Z,2.60
2023-03-19T14:06:58.210Z,2.60
2023-03-19T14:09:39.694Z,2.53
2023-03-19T14:12:24.385Z,2.63
2023-03-19T14:14:57.027Z,2.37
2023-03-19T14:17:28.762Z,2.50
2023-03-19T14:19:59.305Z,2.80
2023-03-19T14:22:36.461Z,2.30
2023-03-19T14:25:17.153Z,2.23
2023-03-19T14:27:48.510Z,2.00
2023-03-19T14:30:30.903Z,1.83
2023-03-19T14:33:02.485Z,2.20
2023-03-19T14:35:34.631Z,2.13
2023-03-19T14:38:11.006Z,1.90
2023-03-19T14:40:44.970Z,1.93
2023-03-19T14:43:25.396Z,2.17
2023-03-19T14:46:00.909Z,1.77
2023-03-19T14:49:02.359Z,2.07
2023-03-19T14:51:57.068Z,2.30
2023-03-19T14:54:31.859Z,2.33
2023-03-19T14:57:07.211Z,2.43
2023-03-19T14:59:39.684Z,1.97
2023-03-19T15:02:36.360Z,1.93
2023-03-19T15:05:07.784Z,2.43
2023-03-19T15:07:38.671Z,2.00
2023-03-19T15:10:09.535Z,2.00
2023-03-19T15:12:56.339Z,2.00
2023-03-19T15:15:56.455Z,1.93
2023-03-19T15:18:27.097Z,2.03
2023-03-19T15:20:56.265Z,1.80
2023-03-19T15:23:28.350Z,2.43
2023-03-19T15:25:58.307Z,2.13
2023-03-19T15:28:27.832Z,2.03
2023-03-19T15:31:05.612Z,2.03
2023-03-19T15:33:41.389Z,1.67
2023-03-19T15:36:16.307Z,1.57
2023-03-19T15:38:49.207Z,1.50
2023-03-19T15:41:18.714Z,1.37
2023-03-19T15:43:46.751Z,1.60
2023-03-19T15:46:17.551Z,1.53
2023-03-19T15:48:51.828Z,1.60
2023-03-19T15:51:22.243Z,1.53
2023-03-19T15:53:50.463Z,1.77
2023-03-19T15:56:20.443Z,1.80
2023-03-19T15:58:53.301Z,2.20
2023-03-19T16:01:22.326Z,1.67
2023-03-19T16:03:56.787Z,1.83
2023-03-19T16:06:27.972Z,1.67
2023-03-19T16:08:57.472Z,1.60
2023-03-19T16:11:29.862Z,1.70
2023-03-19T16:13:59.386Z,1.80
2023-03-19T16:16:30.850Z,1.60
2023-03-19T16:19:00.833Z,1.80
2023-03-19T16:21:36.806Z,2.10
2023-03-19T16:24:10.478Z,1.97
2023-03-19T16:26:40.227Z,1.83
2023-03-19T16:29:19.093Z,1.80
2023-03-19T16:31:51.687Z,1.80
2023-03-19T16:34:32.086Z,1.90
2023-03-19T16:37:01.462Z,2.00
2023-03-19T16:39:36.739Z,2.03
2023-03-19T16:42:29.578Z,1.90
2023-03-19T16:44:58.019Z,2.13
2023-03-19T16:47:25.789Z,1.80
2023-03-19T16:49:54.946Z,2.00
2023-03-19T16:52:25.135Z,2.10
2023-03-19T16:54:53.251Z,1.70
2023-03-19T16:57:21.166Z,2.37
2023-03-19T16:59:49.189Z,2.30
2023-03-19T17:02:18.849Z,2.40
2023-03-19T17:04:47.055Z,2.60
2023-03-19T17:07:16.300Z,1.90
2023-03-19T17:09:44.089Z,2.27
2023-03-19T17:12:17.257Z,2.47
2023-03-19T17:14:45.543Z,3.63
2023-03-19T17:17:19.683Z,2.70
2023-03-19T17:19:48.256Z,2.23
2023-03-19T17:22:17.401Z,1.90
2023-03-19T17:24:45.520Z,2.77
2023-03-19T17:27:13.341Z,2.30
2023-03-19T17:29:41.126Z,2.70
2023-03-19T17:32:17.869Z,3.23
2023-03-19T17:34:45.876Z,2.40
2023-03-19T17:37:14.824Z,2.80
2023-03-19T17:39:45.719Z,2.77
2023-03-19T17:42:19.824Z,3.80
2023-03-19T17:44:47.646Z,3.13
2023-03-19T17:47:16.897Z,2.40
2023-03-19T17:49:45.568Z,2.53
2023-03-19T17:52:15.772Z,3.10
2023-03-19T17:54:45.790Z,2.93
2023-03-19T17:57:15.500Z,2.90
2023-03-19T17:59:43.308Z,2.90
2023-03-19T18:02:24.658Z,3.03
2023-03-19T18:04:52.808Z,3.00
2023-03-19T18:07:20.683Z,2.60
2023-03-19T18:09:49.870Z,2.40
2023-03-19T18:12:17.650Z,2.50
2023-03-19T18:14:45.567Z,2.50
2023-03-19T18:17:17.019Z,3.40
2023-03-19T18:19:46.751Z,2.63
2023-03-19T18:22:16.780Z,1.80
2023-03-19T18:24:46.049Z,1.20
2023-03-19T18:27:15.283Z,0.90
2023-03-19T18:29:43.153Z,0.90
2023-03-19T18:32:15.866Z,1.20
2023-03-19T18:34:43.706Z,0.70
2023-03-19T18:37:15.970Z,0.70
2023-03-19T18:39:43.761Z,0.93
2023-03-19T18:42:12.866Z,1.00
2023-03-19T18:44:42.395Z,0.87
2023-03-19T18:47:14.771Z,0.60
2023-03-19T18:49:42.654Z,0.80
2023-03-19T18:52:15.899Z,0.90
2023-03-19T18:54:46.367Z,0.87
2023-03-19T18:57:15.661Z,0.83
2023-03-19T18:59:44.910Z,0.83
2023-03-19T19:02:33.108Z,1.00
2023-03-19T19:05:01.027Z,1.03
2023-03-19T19:07:28.816Z,1.70
2023-03-19T19:09:56.637Z,1.90
2023-03-19T19:12:25.954Z,2.10
2023-03-19T19:14:55.289Z,1.80
2023-03-19T19:17:24.482Z,2.00
2023-03-19T19:19:52.306Z,1.50
2023-03-19T19:22:21.218Z,1.57
2023-03-19T19:24:49.095Z,1.60
2023-03-19T19:27:18.734Z,1.63
2023-03-19T19:29:47.251Z,1.70
2023-03-19T19:32:24.642Z,1.37
2023-03-19T19:34:53.066Z,2.70
2023-03-19T19:37:23.025Z,1.80
2023-03-19T19:39:51.568Z,1.30
2023-03-19T19:42:21.633Z,1.60
2023-03-19T19:44:52.827Z,1.70
2023-03-19T19:47:21.971Z,1.43
2023-03-19T19:49:49.777Z,1.30
2023-03-19T19:52:19.945Z,1.57
2023-03-19T19:54:48.080Z,1.13
2023-03-19T19:57:19.494Z,1.50
2023-03-19T19:59:47.496Z,2.00
2023-03-19T20:02:24.657Z,1.93
2023-03-19T20:04:52.645Z,1.60
2023-03-19T20:07:20.494Z,1.70
2023-03-19T20:09:48.681Z,1.90
2023-03-19T20:12:21.143Z,1.53
2023-03-19T20:14:50.667Z,1.93
2023-03-19T20:17:20.750Z,1.60
2023-03-19T20:19:50.009Z,1.13
2023-03-19T20:22:18.097Z,1.60
2023-03-19T20:24:49.456Z,1.37
2023-03-19T20:27:21.865Z,2.00
2023-03-19T20:29:50.629Z,2.00
2023-03-19T20:32:27.827Z,2.33
2023-03-19T20:34:56.971Z,1.67
2023-03-19T20:37:24.799Z,1.30
2023-03-19T20:39:52.634Z,1.37
2023-03-19T20:42:20.716Z,1.40
2023-03-19T20:44:48.812Z,1.60
2023-03-19T20:47:19.245Z,1.40
2023-03-19T20:49:47.118Z,1.50
2023-03-19T20:52:16.451Z,1.80
2023-03-19T20:54:44.666Z,1.60
2023-03-19T20:57:14.767Z,1.90
2023-03-19T20:59:45.721Z,1.60
2023-03-19T21:02:17.003Z,1.67
2023-03-19T21:04:44.857Z,1.37
2023-03-19T21:07:28.571Z,1.57
2023-03-19T21:09:57.581Z,1.40
2023-03-19T21:12:29.367Z,1.37
2023-03-19T21:14:57.579Z,1.20
2023-03-19T21:17:27.298Z,2.40
2023-03-19T21:19:55.726Z,2.37
2023-03-19T21:22:28.352Z,1.90
2023-03-19T21:25:04.253Z,2.53
2023-03-19T21:27:35.051Z,1.80
2023-03-19T21:30:04.497Z,1.93
2023-03-19T21:32:32.424Z,2.10
2023-03-19T21:35:00.399Z,2.60
2023-03-19T21:37:29.579Z,2.17
2023-03-19T21:39:57.822Z,2.20
2023-03-19T21:42:25.676Z,2.17
2023-03-19T21:44:59.674Z,1.73
2023-03-19T21:47:27.475Z,1.73
2023-03-19T21:49:55.366Z,1.90
2023-03-19T21:52:23.248Z,2.00
2023-03-19T21:54:52.747Z,2.30
2023-03-19T21:57:20.580Z,1.97
2023-03-19T21:59:48.495Z,2.17
2023-03-19T22:02:39.506Z,1.87
2023-03-19T22:05:20.234Z,1.90
2023-03-19T22:07:48.056Z,2.33
2023-03-19T22:10:17.411Z,2.47
2023-03-19T22:12:46.110Z,2.40
2023-03-19T22:15:21.169Z,2.30
2023-03-19T22:17:50.084Z,2.53
2023-03-19T22:20:20.371Z,2.53
2023-03-19T22:22:48.558Z,2.30
2023-03-19T22:25:18.831Z,1.87
2023-03-19T22:27:49.283Z,2.00
2023-03-19T22:30:23.909Z,1.83
2023-03-19T22:32:52.901Z,2.00
2023-03-19T22:35:20.901Z,2.07
2023-03-19T22:37:48.713Z,2.13
2023-03-19T22:40:19.096Z,2.03
2023-03-19T22:42:48.493Z,1.60
2023-03-19T22:45:24.452Z,1.80
2023-03-19T22:47:53.015Z,1.60
2023-03-19T22:50:23.669Z,1.77
2023-03-19T22:52:51.617Z,1.37
2023-03-19T22:55:20.861Z,1.67
2023-03-19T22:57:48.742Z,1.45
2023-03-19T23:00:19.274Z,1.43
2023-03-19T23:02:48.725Z,1.40
2023-03-19T23:05:38.498Z,1.40
2023-03-19T23:08:06.904Z,1.43
2023-03-19T23:10:36.139Z,1.30
2023-03-19T23:13:03.898Z,1.40
2023-03-19T23:15:32.793Z,1.60
2023-03-19T23:18:01.244Z,1.70
2023-03-19T23:20:32.437Z,1.40
2023-03-19T23:23:00.767Z,1.43
2023-03-19T23:25:30.097Z,1.33
2023-03-19T23:28:01.866Z,1.40
2023-03-19T23:30:31.667Z,1.50
2023-03-19T23:33:01.883Z,1.57
2023-03-19T23:35:31.332Z,1.60
2023-03-19T23:37:59.532Z,1.43
2023-03-19T23:40:30.184Z,1.37
2023-03-19T23:43:01.271Z,1.40
2023-03-19T23:45:37.825Z,1.57
2023-03-19T23:48:08.253Z,1.27
2023-03-19T23:50:36.661Z,1.60
2023-03-19T23:53:04.697Z,1.40
2023-03-19T23:55:33.450Z,1.53
2023-03-19T23:58:03.031Z,1.50
